Time;durP1;ratioP1;P1;durP2;ratioP2;P2;SDS_P1;SDS_P2;PMS_P1;PMS_P2;Temp;Humidity;BMP_temperature;BMP_pressure;BME280_temperature;BME280_humidity;BME280_pressure;Samples;Min_cycle;Max_cycle;Signal;HPM_P1;HPM_P2
2023/11/30 00:00:10;582664.00;1.94;1004.30;102756.00;0.34;178.33;;;;;4.80;1.00;;;;;;2276941;61;1039;-91
2023/11/30 00:02:37;678696.00;2.26;1170.31;90709.00;0.30;157.53;;;;;4.80;1.00;;;;;;2276174;61;2202;-86
2023/11/30 00:05:07;593391.00;1.98;1022.81;84687.00;0.28;147.13;;;;;4.70;1.00;;;;;;2276175;61;1439;-88
2023/11/30 00:07:35;933808.00;3.11;1615.58;108521.00;0.36;188.28;;;;;4.90;1.00;;;;;;2276171;61;1498;-87
2023/11/30 00:10:03;929417.00;3.10;1607.85;142061.00;0.47;246.12;;;;;4.70;1.00;;;;;;2276342;61;1545;-86
2023/11/30 00:12:29;942717.00;3.14;1631.27;184000.00;0.61;318.38;;;;;4.70;1.00;;;;;;2276251;61;1807;-86
2023/11/30 00:14:56;909382.00;3.03;1572.60;110731.00;0.37;192.09;;;;;4.90;1.00;;;;;;2276089;61;1265;-87
2023/11/30 00:17:23;916141.00;3.05;1584.49;97953.00;0.33;170.04;;;;;4.80;1.00;;;;;;2276173;61;2033;-86
2023/11/30 00:19:50;902354.00;3.01;1560.25;104751.00;0.35;181.77;;;;;4.70;1.00;;;;;;2276332;61;956;-87
2023/11/30 00:22:17;907235.00;3.02;1568.83;120611.00;0.40;209.14;;;;;4.60;1.00;;;;;;2276101;61;926;-87
2023/11/30 00:24:45;800304.00;2.67;1381.65;99313.00;0.33;172.39;;;;;4.70;1.00;;;;;;2276318;61;1014;-86
2023/11/30 00:27:12;971325.00;3.24;1681.75;101879.00;0.34;176.82;;;;;4.70;1.00;;;;;;2276194;61;2275;-86
2023/11/30 00:29:40;709240.00;2.36;1223.27;91255.00;0.30;158.47;;;;;4.70;1.00;;;;;;2276238;61;1027;-84
2023/11/30 00:32:07;656478.00;2.19;1131.85;100255.00;0.33;174.01;;;;;4.70;1.00;;;;;;2276183;61;1578;-87
2023/11/30 00:34:34;821648.00;2.74;1418.90;93188.00;0.31;161.81;;;;;4.80;1.00;;;;;;2276145;61;1046;-87
2023/11/30 00:37:01;529078.00;1.76;911.90;101217.00;0.34;175.67;;;;;4.90;1.00;;;;;;2276220;61;1992;-87
2023/11/30 00:39:27;659201.00;2.20;1136.56;84833.00;0.28;147.38;;;;;4.90;1.00;;;;;;2276251;61;1689;-87
2023/11/30 00:41:56;117402808.00;391.34;65548684.00;118214.00;0.39;205.00;;;;;4.90;1.00;;;;;;2276218;61;871;-87
2023/11/30 00:44:23;539715.00;1.80;930.23;96789.00;0.32;168.03;;;;;5.00;1.00;;;;;;2276107;61;976;-86
2023/11/30 00:46:50;678690.00;2.26;1170.30;95319.00;0.32;165.49;;;;;5.30;1.00;;;;;;2276153;61;1395;-89
2023/11/30 00:49:17;431684.00;1.44;744.28;100543.00;0.34;174.51;;;;;5.10;1.00;;;;;;2276169;61;1582;-87
2023/11/30 00:51:44;550037.00;1.83;948.02;100590.00;0.34;174.59;;;;;5.10;1.00;;;;;;2276096;61;1014;-87
2023/11/30 00:54:10;577175.00;1.92;994.82;97831.00;0.33;169.83;;;;;5.20;1.00;;;;;;2276236;61;940;-86
2023/11/30 00:56:37;575389.00;1.92;991.74;96257.00;0.32;167.11;;;;;5.20;1.00;;;;;;2275999;61;1998;-86
2023/11/30 00:59:06;305833.00;1.02;527.95;109300.00;0.36;189.62;;;;;5.10;1.00;;;;;;2276004;61;1420;-87
2023/11/30 01:01:32;478431.00;1.59;824.70;95987.00;0.32;166.64;;;;;5.10;1.00;;;;;;2276093;61;992;-86
2023/11/30 01:03:59;445210.00;1.48;767.54;98670.00;0.33;171.28;;;;;4.90;1.00;;;;;;2276071;61;1537;-87
2023/11/30 01:06:26;586153.00;1.95;1010.32;95295.00;0.32;165.45;;;;;4.80;1.00;;;;;;2276107;61;1406;-87
2023/11/30 01:08:53;458344.00;1.53;790.14;92881.00;0.31;161.28;;;;;4.80;1.00;;;;;;2276061;61;1100;-86
2023/11/30 01:11:20;406854.00;1.36;701.59;99080.00;0.33;171.98;;;;;5.00;1.00;;;;;;2276150;61;1040;-88
2023/11/30 01:13:47;367260.00;1.22;633.53;85401.00;0.28;148.37;;;;;5.00;1.00;;;;;;2276136;61;1063;-85
2023/11/30 01:16:15;521320.00;1.74;898.54;90376.00;0.30;156.96;;;;;5.10;1.00;;;;;;2276028;61;1998;-87
2023/11/30 01:18:42;316714.00;1.06;546.65;97456.00;0.32;169.18;;;;;4.90;1.00;;;;;;2275948;61;944;-87
2023/11/30 01:21:09;339995.00;1.13;586.67;83984.00;0.28;145.92;;;;;4.90;1.00;;;;;;2275883;61;1054;-87
2023/11/30 01:23:36;537704.00;1.79;926.77;96370.00;0.32;167.31;;;;;4.80;1.00;;;;;;2276104;61;1048;-86
2023/11/30 01:26:03;392594.00;1.31;677.07;97981.00;0.33;170.09;;;;;4.70;1.00;;;;;;2276095;61;1417;-88
2023/11/30 01:28:30;331290.00;1.10;571.70;95065.00;0.32;165.05;;;;;4.60;1.00;;;;;;2276085;61;1072;-87
2023/11/30 01:30:57;312041.00;1.04;538.62;89989.00;0.30;156.29;;;;;4.60;1.00;;;;;;2276078;61;1114;-87
2023/11/30 01:33:25;311812.00;1.04;538.22;124463.00;0.41;215.78;;;;;4.70;1.00;;;;;;2275994;61;1107;-88
2023/11/30 01:35:52;324226.00;1.08;559.56;99165.00;0.33;172.13;;;;;4.60;1.00;;;;;;2275887;61;1923;-86
2023/11/30 01:38:19;511315.00;1.70;881.31;92981.00;0.31;161.45;;;;;4.50;1.00;;;;;;2275911;61;1032;-87
2023/11/30 01:40:47;274304.00;0.91;473.74;80323.00;0.27;139.60;;;;;4.40;1.00;;;;;;2275971;61;976;-88
2023/11/30 01:43:17;290578.00;0.97;501.72;91560.00;0.31;159.00;;;;;4.40;1.00;;;;;;2275894;61;1543;-87
2023/11/30 01:45:44;245435.00;0.82;424.10;100785.00;0.34;174.93;;;;;4.40;1.00;;;;;;2276073;61;1449;-89
2023/11/30 01:48:11;226187.00;0.75;390.99;77041.00;0.26;133.93;;;;;4.20;1.00;;;;;;2275977;61;1087;-88
2023/11/30 01:50:39;117609200.00;392.03;65895308.00;101079.00;0.34;175.43;;;;;4.40;1.00;;;;;;2276014;61;2312;-86
2023/11/30 01:53:07;410448.00;1.37;707.77;91717.00;0.31;159.27;;;;;4.40;1.00;;;;;;2275953;61;1058;-87
2023/11/30 01:55:34;247130.00;0.82;427.01;98352.00;0.33;170.73;;;;;4.20;1.00;;;;;;2275887;61;1321;-86
2023/11/30 01:58:02;12966.00;0.04;23.09;0.00;0.00;0.62;;;;;4.00;1.00;;;;;;2275814;61;1935;-85
2023/11/30 02:00:32;118520248.00;395.07;67439960.00;0.00;0.00;0.62;;;;;3.90;1.00;;;;;;2275912;61;1606;-88
2023/11/30 02:02:59;62255.00;0.21;108.37;0.00;0.00;0.62;;;;;3.90;1.00;;;;;;2275969;61;973;-86
2023/11/30 02:05:26;101978.00;0.34;176.99;0.00;0.00;0.62;;;;;3.90;1.00;;;;;;2275948;61;1357;-86
2023/11/30 02:07:54;66085.00;0.22;114.99;0.00;0.00;0.62;;;;;4.00;1.00;;;;;;2275968;61;984;-87
2023/11/30 02:10:22;105840.00;0.35;183.65;0.00;0.00;0.62;;;;;4.00;1.00;;;;;;2275998;61;1116;-86
2023/11/30 02:12:48;100724.00;0.34;174.82;0.00;0.00;0.62;;;;;4.00;1.00;;;;;;2275981;61;1018;-87
2023/11/30 02:15:16;69698.00;0.23;121.24;0.00;0.00;0.62;;;;;3.90;1.00;;;;;;2275864;61;1275;-88
2023/11/30 02:17:44;50999.00;0.17;88.91;0.00;0.00;0.62;;;;;3.90;1.00;;;;;;2275838;61;2001;-87
2023/11/30 02:20:12;121176.00;0.40;210.11;29589.00;0.10;51.87;;;;;3.80;1.00;;;;;;2275611;61;1459;-88
2023/11/30 02:22:41;194342.00;0.65;336.18;0.00;0.00;0.62;;;;;3.80;1.00;;;;;;2275775;61;1143;-87
2023/11/30 02:25:08;120582.00;0.40;209.09;0.00;0.00;0.62;;;;;3.90;1.00;;;;;;2275790;61;1336;-88
2023/11/30 02:27:35;55630.00;0.19;96.92;0.00;0.00;0.62;;;;;3.90;1.00;;;;;;2275908;61;975;-88
2023/11/30 02:30:02;62115.00;0.21;108.13;0.00;0.00;0.62;;;;;4.00;1.00;;;;;;2275709;61;1002;-86
2023/11/30 02:32:29;61724.00;0.21;107.46;0.00;0.00;0.62;;;;;4.00;1.00;;;;;;2275764;61;1717;-87
2023/11/30 02:34:56;114990.00;0.38;199.44;0.00;0.00;0.62;;;;;3.90;1.00;;;;;;2275865;61;1361;-87
2023/11/30 02:37:23;73974.00;0.25;128.63;0.00;0.00;0.62;;;;;3.90;1.00;;;;;;2275815;61;1997;-86
2023/11/30 02:39:51;221032.00;0.74;382.12;0.00;0.00;0.62;;;;;3.80;1.00;;;;;;2275887;61;989;-87
2023/11/30 02:42:18;102970.00;0.34;178.70;0.00;0.00;0.62;;;;;3.90;1.00;;;;;;2275821;61;1096;-87
2023/11/30 02:44:44;228354.00;0.76;394.72;7489.00;0.02;13.60;;;;;4.00;1.00;;;;;;2275601;61;1448;-90
2023/11/30 02:47:11;64204.00;0.21;111.74;0.00;0.00;0.62;;;;;3.70;1.00;;;;;;2275775;61;1316;-87
2023/11/30 02:49:38;169175.00;0.56;292.85;0.00;0.00;0.62;;;;;3.70;1.00;;;;;;2275807;61;1046;-87
2023/11/30 02:52:06;124992.00;0.42;216.69;0.00;0.00;0.62;;;;;3.80;1.00;;;;;;2275745;61;971;-87
2023/11/30 02:54:32;225059.00;0.75;389.05;0.00;0.00;0.62;;;;;3.80;1.00;;;;;;2275712;61;1110;-88
2023/11/30 02:57:01;260577.00;0.87;450.14;0.00;0.00;0.62;;;;;3.80;1.00;;;;;;2275680;61;1919;-87
2023/11/30 02:59:28;206241.00;0.69;356.67;0.00;0.00;0.62;;;;;3.80;1.00;;;;;;2275765;61;1486;-88
2023/11/30 03:01:54;241389.00;0.80;417.14;0.00;0.00;0.62;;;;;3.90;1.00;;;;;;2275792;61;914;-88
2023/11/30 03:04:21;171528.00;0.57;296.90;0.00;0.00;0.62;;;;;4.00;1.00;;;;;;2275665;61;1080;-87
2023/11/30 03:06:50;257877.00;0.86;445.50;0.00;0.00;0.62;;;;;3.90;1.00;;;;;;2275753;61;1286;-87
2023/11/30 03:09:17;22026.00;0.07;38.78;0.00;0.00;0.62;;;;;3.90;1.00;;;;;;2275768;61;1652;-87
2023/11/30 03:11:44;119076.00;0.40;206.49;0.00;0.00;0.62;;;;;3.90;1.00;;;;;;2275810;61;1126;-87
2023/11/30 03:14:13;88350.00;0.29;153.46;0.00;0.00;0.62;;;;;4.00;1.00;;;;;;2275731;61;1600;-88
2023/11/30 03:16:39;73803.00;0.25;128.33;0.00;0.00;0.62;;;;;4.00;1.00;;;;;;2275688;61;2014;-86
2023/11/30 03:19:06;121054.00;0.40;209.90;0.00;0.00;0.62;;;;;4.10;1.00;;;;;;2275780;61;1104;-87
2023/11/30 03:21:33;48347.00;0.16;84.33;0.00;0.00;0.62;;;;;3.90;1.00;;;;;;2275661;61;1569;-87
2023/11/30 03:24:00;142630.00;0.48;247.10;0.00;0.00;0.62;;;;;3.80;1.00;;;;;;2275729;61;1043;-87
2023/11/30 03:26:27;32491.00;0.11;56.89;0.00;0.00;0.62;;;;;3.90;1.00;;;;;;2275658;61;1673;-88
2023/11/30 03:28:54;94110.00;0.31;163.40;0.00;0.00;0.62;;;;;4.10;1.00;;;;;;2275738;61;1099;-88
2023/11/30 03:31:22;36582.00;0.12;63.97;0.00;0.00;0.62;;;;;4.10;1.00;;;;;;2275713;61;2389;-88
2023/11/30 03:33:49;168998.00;0.56;292.54;0.00;0.00;0.62;;;;;4.10;1.00;;;;;;2275724;61;969;-88
2023/11/30 03:36:16;109401.00;0.36;189.80;0.00;0.00;0.62;;;;;4.20;1.00;;;;;;2275530;61;1729;-86
2023/11/30 03:38:43;147979.00;0.49;256.32;0.00;0.00;0.62;;;;;4.20;1.00;;;;;;2319025;40;3500;-88
2023/11/30 03:41:10;164143.00;0.55;284.18;0.00;0.00;0.62;;;;;4.20;1.00;;;;;;2279532;60;1559;-87
2023/11/30 03:43:37;119299.00;0.40;206.87;0.00;0.00;0.62;;;;;4.20;1.00;;;;;;2280143;60;985;-88
2023/11/30 03:46:04;305815.00;1.02;527.92;0.00;0.00;0.62;;;;;4.50;1.00;;;;;;2278078;60;1347;-88
2023/11/30 03:48:32;81831.00;0.27;142.20;0.00;0.00;0.62;;;;;4.20;1.00;;;;;;2276236;61;1693;-88
2023/11/30 03:50:59;104259.00;0.35;180.92;36896.00;0.12;64.52;;;;;4.00;1.00;;;;;;2276326;61;1067;-89
2023/11/30 03:53:27;60457.00;0.20;105.27;0.00;0.00;0.62;;;;;4.10;1.00;;;;;;2276491;61;1011;-88
2023/11/30 03:55:53;78079.00;0.26;135.72;0.00;0.00;0.62;;;;;4.20;1.00;;;;;;2276264;61;1609;-87
2023/11/30 03:58:20;66470.00;0.22;115.66;0.00;0.00;0.62;;;;;4.50;1.00;;;;;;2276394;61;1919;-89
2023/11/30 04:00:47;121115.00;0.40;210.01;0.00;0.00;0.62;;;;;4.30;1.00;;;;;;2276405;61;992;-88
2023/11/30 04:03:14;58964.00;0.20;102.69;0.00;0.00;0.62;;;;;4.20;1.00;;;;;;2276696;61;1046;-89
2023/11/30 04:05:42;52779.00;0.18;91.99;0.00;0.00;0.62;;;;;4.20;1.00;;;;;;2276612;61;1229;-86
2023/11/30 04:08:09;116148.00;0.39;201.44;0.00;0.00;0.62;;;;;4.20;1.00;;;;;;2276516;61;1085;-87
2023/11/30 04:10:36;107710.00;0.36;186.88;0.00;0.00;0.62;;;;;3.90;1.00;;;;;;2276515;61;1751;-86
2023/11/30 04:13:03;143818.00;0.48;249.15;0.00;0.00;0.62;;;;;4.00;1.00;;;;;;2276648;61;1117;-87
2023/11/30 04:15:30;0.00;0.00;0.62;0.00;0.00;0.62;;;;;4.30;1.00;;;;;;2276501;61;1241;-87
2023/11/30 04:17:57;49174.00;0.16;85.76;0.00;0.00;0.62;;;;;4.30;1.00;;;;;;2276662;61;1919;-87
2023/11/30 04:20:24;54996.00;0.18;95.83;0.00;0.00;0.62;;;;;4.20;1.00;;;;;;2276597;61;1093;-87
2023/11/30 04:22:52;75404.00;0.25;131.10;0.00;0.00;0.62;;;;;4.20;1.00;;;;;;2276639;61;1439;-89
2023/11/30 04:25:19;363517.00;1.21;627.09;0.00;0.00;0.62;;;;;4.20;1.00;;;;;;2276643;61;1248;-89
2023/11/30 04:27:46;0.00;0.00;0.62;0.00;0.00;0.62;;;;;4.30;1.00;;;;;;2276653;61;1097;-87
2023/11/30 04:30:13;139982.00;0.47;242.54;0.00;0.00;0.62;;;;;4.10;1.00;;;;;;2276548;61;1707;-88
2023/11/30 04:32:40;34563.00;0.12;60.48;0.00;0.00;0.62;;;;;4.10;1.00;;;;;;2276597;61;925;-89
2023/11/30 04:35:07;138530.00;0.46;240.04;0.00;0.00;0.62;;;;;4.40;1.00;;;;;;2276608;61;1285;-87
2023/11/30 04:37:34;228867.00;0.76;395.60;0.00;0.00;0.62;;;;;4.60;1.00;;;;;;2276422;61;1914;-88
2023/11/30 04:40:03;76880.00;0.26;133.65;0.00;0.00;0.62;;;;;4.50;1.00;;;;;;2276511;61;1705;-87
2023/11/30 04:42:29;383987.00;1.28;662.28;10032.00;0.03;18.00;;;;;4.30;1.00;;;;;;2276423;61;2018;-87
2023/11/30 04:44:56;200099.00;0.67;346.09;0.00;0.00;0.62;;;;;4.50;1.00;;;;;;2276472;61;1375;-87
2023/11/30 04:47:23;289664.00;0.97;500.15;0.00;0.00;0.62;;;;;4.70;1.00;;;;;;2276412;61;995;-87
2023/11/30 04:49:51;205185.00;0.68;354.85;0.00;0.00;0.62;;;;;4.70;1.00;;;;;;2276524;61;2147;-89
2023/11/30 04:52:18;197129.00;0.66;340.98;0.00;0.00;0.62;;;;;4.80;1.00;;;;;;2276406;61;1603;-88
2023/11/30 04:54:45;233645.00;0.78;403.82;0.00;0.00;0.62;;;;;4.70;1.00;;;;;;2276463;61;1576;-84
2023/11/30 04:57:14;530326.00;1.77;914.05;0.00;0.00;0.62;;;;;4.50;1.00;;;;;;2276412;61;1915;-88
2023/11/30 04:59:41;76740.00;0.26;133.41;0.00;0.00;0.62;;;;;4.40;1.00;;;;;;2276463;61;1030;-88
2023/11/30 05:02:08;393337.00;1.31;678.35;0.00;0.00;0.62;;;;;4.50;1.00;;;;;;2276388;61;938;-87
2023/11/30 05:04:37;70603.00;0.24;122.80;0.00;0.00;0.62;;;;;4.30;1.00;;;;;;2276521;61;959;-89
2023/11/30 05:07:04;319683.00;1.07;551.75;29305.00;0.10;51.38;;;;;4.20;1.00;;;;;;2276446;61;1755;-88
2023/11/30 05:09:31;42378.00;0.14;74.00;0.00;0.00;0.62;;;;;4.50;1.00;;;;;;2276458;61;1742;-86
2023/11/30 05:11:58;64816.00;0.22;112.80;0.00;0.00;0.62;;;;;4.50;1.00;;;;;;2276439;61;1130;-87
2023/11/30 05:14:26;166351.00;0.55;287.98;0.00;0.00;0.62;;;;;4.50;1.00;;;;;;2276520;61;1034;-88
2023/11/30 05:16:53;110147.00;0.37;191.08;0.00;0.00;0.62;;;;;4.70;1.00;;;;;;2276362;61;1344;-87
2023/11/30 05:19:20;133778.00;0.45;231.84;0.00;0.00;0.62;;;;;4.70;1.00;;;;;;2276349;61;1931;-88
2023/11/30 05:21:47;115104.00;0.38;199.64;0.00;0.00;0.62;;;;;4.60;1.00;;;;;;2276444;61;936;-88
2023/11/30 05:24:14;34637.00;0.12;60.61;0.00;0.00;0.62;;;;;4.70;1.00;;;;;;2276378;61;1136;-87
2023/11/30 05:26:41;280577.00;0.94;484.53;0.00;0.00;0.62;;;;;4.60;1.00;;;;;;2276279;61;1577;-87
2023/11/30 05:29:08;11529.00;0.04;20.60;0.00;0.00;0.62;;;;;4.50;1.00;;;;;;2276383;61;1150;-89
2023/11/30 05:31:36;187229.00;0.62;323.94;0.00;0.00;0.62;;;;;4.50;1.00;;;;;;2276438;61;1041;-90
2023/11/30 05:34:03;114358.00;0.38;198.35;0.00;0.00;0.62;;;;;4.60;1.00;;;;;;2276321;61;1118;-87
2023/11/30 05:36:30;72124.00;0.24;125.43;0.00;0.00;0.62;;;;;4.50;1.00;;;;;;2276358;61;1435;-90
2023/11/30 05:38:58;25447.00;0.08;44.70;0.00;0.00;0.62;;;;;4.50;1.00;;;;;;2276372;61;2001;-87
2023/11/30 05:41:25;159106.00;0.53;275.50;0.00;0.00;0.62;;;;;4.60;1.00;;;;;;2276363;61;1199;-87
2023/11/30 05:43:52;197596.00;0.66;341.79;25896.00;0.09;45.48;;;;;4.60;1.00;;;;;;2276353;61;1678;-88
2023/11/30 05:46:19;40938.00;0.14;71.51;0.00;0.00;0.62;;;;;4.40;1.00;;;;;;2276257;61;1387;-89
2023/11/30 05:48:47;59261.00;0.20;103.20;0.00;0.00;0.62;;;;;4.30;1.00;;;;;;2286396;55;3716;-85
2023/11/30 05:51:14;193617.00;0.65;334.94;0.00;0.00;0.62;;;;;4.30;1.00;;;;;;2280347;60;1016;-87
2023/11/30 05:53:41;104665.00;0.35;181.62;0.00;0.00;0.62;;;;;4.20;1.00;;;;;;2280439;60;1118;-88
2023/11/30 05:56:09;295233.00;0.98;509.73;0.00;0.00;0.62;;;;;4.40;1.00;;;;;;2278055;60;1390;-89
2023/11/30 05:58:36;139302.00;0.46;241.37;0.00;0.00;0.62;;;;;4.40;1.00;;;;;;2276248;61;2157;-87
2023/11/30 06:01:04;233091.00;0.78;402.87;0.00;0.00;0.62;;;;;4.40;1.00;;;;;;2276350;61;968;-87
2023/11/30 06:03:31;55637.00;0.19;96.93;0.00;0.00;0.62;;;;;4.30;1.00;;;;;;2276299;61;1035;-87
2023/11/30 06:05:59;5756.00;0.02;10.60;0.00;0.00;0.62;;;;;4.40;1.00;;;;;;2276104;61;1514;-88
2023/11/30 06:08:26;34059.00;0.11;59.61;0.00;0.00;0.62;;;;;4.50;1.00;;;;;;2276193;61;1687;-88
2023/11/30 06:10:53;110381.00;0.37;191.49;0.00;0.00;0.62;;;;;4.40;1.00;;;;;;2276215;61;2244;-88
2023/11/30 06:13:20;174370.00;0.58;301.79;0.00;0.00;0.62;;;;;4.60;1.00;;;;;;2276204;61;1127;-88
2023/11/30 06:15:47;74604.00;0.25;129.72;0.00;0.00;0.62;;;;;4.80;1.00;;;;;;2276176;61;1354;-89
2023/11/30 06:18:14;248659.00;0.83;429.64;0.00;0.00;0.62;;;;;4.90;1.00;;;;;;2276054;61;2006;-87
2023/11/30 06:20:41;149479.00;0.50;258.91;0.00;0.00;0.62;;;;;5.00;1.00;;;;;;2276127;61;989;-88
2023/11/30 06:23:12;46082.00;0.15;80.41;0.00;0.00;0.62;;;;;4.70;1.00;;;;;;2276251;61;1056;-86
2023/11/30 06:25:39;238991.00;0.80;413.02;0.00;0.00;0.62;;;;;4.80;1.00;;;;;;2276109;61;1416;-88
2023/11/30 06:28:05;296699.00;0.99;512.25;0.00;0.00;0.62;;;;;5.00;1.00;;;;;;2276222;61;1454;-89
2023/11/30 06:30:32;68489.00;0.23;119.15;0.00;0.00;0.62;;;;;4.90;1.00;;;;;;2276055;61;1471;-87
2023/11/30 06:32:59;67564.00;0.23;117.55;0.00;0.00;0.62;;;;;4.80;1.00;;;;;;2276193;61;1083;-87
2023/11/30 06:35:26;37283.00;0.12;65.19;0.00;0.00;0.62;;;;;4.60;1.00;;;;;;2276152;61;1262;-88
2023/11/30 06:37:53;290759.00;0.97;502.03;3320.00;0.01;6.37;;;;;4.90;1.00;;;;;;2276038;61;2247;-88
2023/11/30 06:40:21;1561912.00;5.21;2760.17;0.00;0.00;0.62;;;;;4.80;1.00;;;;;;2276069;61;1047;-89
2023/11/30 06:42:48;248696.00;0.83;429.71;0.00;0.00;0.62;;;;;4.80;1.00;;;;;;2276104;61;1647;-88
2023/11/30 06:45:15;46203.00;0.15;80.62;0.00;0.00;0.62;;;;;5.10;1.00;;;;;;2293298;40;3619;-87
2023/11/30 06:47:42;35807.00;0.12;62.63;0.00;0.00;0.62;;;;;5.00;1.00;;;;;;2276016;61;1103;-88
2023/11/30 06:50:10;37744.00;0.13;65.98;0.00;0.00;0.62;;;;;5.00;1.00;;;;;;2276047;61;1692;-87
2023/11/30 08:37:47;982317.00;3.27;1701.18;96271.00;0.32;167.13;;;;;6.00;1.00;;;;;;2282765;61;1867;-90
2023/11/30 08:50:36;1613440.00;5.38;2858.45;67144.00;0.22;116.82;;;;;5.10;1.00;;;;;;2283040;61;1005;-90
2023/11/30 08:58:21;717963.00;2.39;1238.40;0.00;0.00;0.62;;;;;5.80;1.00;;;;;;2282838;61;1942;-88
2023/11/30 09:08:24;135754.00;0.45;235.25;19027.00;0.06;33.59;;;;;5.60;1.00;;;;;;2425779;40;3198;31
2023/11/30 09:28:26;590778.00;1.97;1018.30;0.00;0.00;0.62;;;;;6.30;1.00;;;;;;1968988;56;3470;-88
2023/11/30 10:11:19;634658.00;2.12;1094.10;0.00;0.00;0.62;;;;;7.40;1.00;;;;;;2282820;61;1022;-89
2023/11/30 10:13:48;218245.00;0.73;377.32;14640.00;0.05;25.99;;;;;7.30;1.00;;;;;;2280668;61;1035;-90
2023/11/30 10:16:15;613583.00;2.05;1057.68;8081.00;0.03;14.62;;;;;7.30;1.00;;;;;;2278393;61;1678;-87
2023/11/30 10:18:42;1109712.00;3.70;1927.80;33190.00;0.11;58.10;;;;;7.30;1.00;;;;;;2276378;61;1973;-92
2023/11/30 10:33:54;1590346.00;5.30;2814.30;67131.00;0.22;116.80;;;;;7.70;1.00;;;;;;2278867;61;1010;-89
2023/11/30 10:58:59;709670.00;2.37;1224.01;94765.00;0.32;164.53;;;;;8.00;1.00;;;;;;2283743;61;1877;-89
2023/11/30 11:06:36;122644520.00;408.82;74735168.00;181467.00;0.60;314.02;;;;;8.30;1.00;;;;;;2281056;61;1273;-89
2023/11/30 11:11:35;1065080.00;3.55;1848.09;92621.00;0.31;160.83;;;;;8.20;1.00;;;;;;2283574;61;1282;-89
2023/11/30 11:54:04;1143479.00;3.81;1988.36;114986.00;0.38;199.43;;;;;8.70;1.00;;;;;;2287845;61;1061;-89
2023/11/30 11:56:49;468121.00;1.56;806.96;127391.00;0.42;220.83;;;;;9.00;1.00;;;;;;2358589;40;3570;-90
2023/11/30 11:59:27;556991.00;1.86;960.01;109361.00;0.36;189.73;;;;;8.70;1.00;;;;;;2281883;61;1996;-88
2023/11/30 12:01:58;708015.00;2.36;1221.14;95363.00;0.32;165.57;;;;;8.80;1.00;;;;;;2281921;61;1629;-89
2023/11/30 12:22:06;660658.00;2.20;1139.08;95535.00;0.32;165.86;;;;;8.90;1.00;;;;;;1896582;56;3610;-88
2023/11/30 12:49:22;790571.00;2.64;1364.68;80975.00;0.27;140.72;;;;;9.20;1.00;;;;;;2291076;40;3441;-88
2023/11/30 13:59:41;355412.00;1.18;613.16;0.00;0.00;0.62;;;;;8.80;1.00;;;;;;1819783;40;3434;-89
2023/11/30 14:27:14;402930.00;1.34;694.84;0.00;0.00;0.62;;;;;8.50;1.00;;;;;;2372096;40;3643;-88
2023/11/30 14:39:41;686033.00;2.29;1183.03;93339.00;0.31;162.07;;;;;8.50;1.00;;;;;;2282293;61;1944;-91
2023/11/30 14:54:51;701659.00;2.34;1210.12;0.00;0.00;0.62;;;;;8.10;1.00;;;;;;2282364;61;1332;-89
2023/11/30 15:29:47;1290185.00;4.30;2254.15;54355.00;0.18;94.72;;;;;7.90;1.00;;;;;;2510314;55;3595;31
2023/11/30 15:34:45;340496.00;1.13;587.53;0.00;0.00;0.62;;;;;7.90;1.00;;;;;;2285652;60;1180;-88
2023/11/30 15:39:41;508717.00;1.70;876.83;0.00;0.00;0.62;;;;;8.10;1.00;;;;;;2286167;60;1966;-87
2023/11/30 15:49:37;547798.00;1.83;944.16;43567.00;0.15;76.06;;;;;8.30;1.00;;;;;;2286119;60;1429;-88
2023/11/30 15:54:35;573819.00;1.91;989.03;0.00;0.00;0.62;;;;;8.20;1.00;;;;;;2285985;60;1310;-88
2023/11/30 15:59:31;119751576.00;399.17;69565752.00;8946.00;0.03;16.12;;;;;7.80;1.00;;;;;;2286578;60;1972;-87
2023/11/30 16:04:27;1268646.00;4.23;2214.84;23813.00;0.08;41.87;;;;;7.70;1.00;;;;;;2282318;60;1320;-88
2023/11/30 16:09:23;1811333.00;6.04;3243.85;9140.00;0.03;16.46;;;;;7.80;1.00;;;;;;2282061;60;1342;-89
2023/11/30 16:19:25;674934.00;2.25;1163.80;94653.00;0.32;164.34;;;;;8.70;1.00;;;;;;2281994;60;1899;-87
2023/11/30 16:21:52;436855.00;1.46;753.17;103870.00;0.35;180.25;;;;;8.90;1.00;;;;;;2280626;60;923;-87
2023/11/30 16:24:19;239284.00;0.80;413.52;0.00;0.00;0.62;;;;;8.90;1.00;;;;;;2280541;60;1070;-87
2023/11/30 16:26:46;35881.00;0.12;62.76;0.00;0.00;0.62;;;;;9.10;1.00;;;;;;2277266;61;1257;-88
2023/11/30 16:29:13;270728.00;0.90;467.60;49806.00;0.17;86.85;;;;;8.50;1.00;;;;;;2276502;61;1538;-88
2023/11/30 16:31:40;170831.00;0.57;295.70;0.00;0.00;0.62;;;;;8.40;1.00;;;;;;2288763;39;3711;-86
2023/11/30 16:34:07;300070.00;1.00;518.04;0.00;0.00;0.62;;;;;8.20;1.00;;;;;;2280344;60;1618;-87
2023/11/30 16:36:35;1877344.00;6.26;3375.44;201349.00;0.67;348.25;;;;;8.00;1.00;;;;;;2277472;60;1505;-88
2023/11/30 16:39:03;422204.00;1.41;727.98;101956.00;0.34;176.95;;;;;7.90;1.00;;;;;;2276363;61;2001;-87
2023/11/30 16:41:30;162772.00;0.54;281.82;0.00;0.00;0.62;;;;;7.90;1.00;;;;;;2276399;61;1656;-88
2023/11/30 16:43:57;307922.00;1.03;531.54;46650.00;0.16;81.39;;;;;7.90;1.00;;;;;;2276445;61;1668;-87
2023/11/30 16:46:27;503139.00;1.68;867.23;12115.00;0.04;21.61;;;;;7.80;1.00;;;;;;2276382;61;1285;-87
2023/11/30 16:48:57;337056.00;1.12;581.61;13647.00;0.05;24.27;;;;;7.80;1.00;;;;;;2276343;61;950;-86
2023/11/30 16:51:25;166784.00;0.56;288.73;3540.00;0.01;6.76;;;;;7.90;1.00;;;;;;2275968;61;1622;-87
2023/11/30 16:53:53;236523.00;0.79;408.77;0.00;0.00;0.62;;;;;7.90;1.00;;;;;;2276142;61;1506;-87
2023/11/30 16:56:24;2103009.00;7.01;3838.03;183836.00;0.61;318.10;;;;;7.70;1.00;;;;;;2279605;55;3817;-89
2023/11/30 16:58:51;1018604.00;3.40;1765.45;99370.00;0.33;172.48;;;;;7.40;1.00;;;;;;2280521;60;1998;-88
2023/11/30 17:01:18;154540.00;0.52;267.63;0.00;0.00;0.62;;;;;7.20;1.00;;;;;;2280253;60;1614;-88
2023/11/30 17:03:45;252420.00;0.84;436.11;11011.00;0.04;19.70;;;;;7.20;1.00;;;;;;2280535;60;1720;-88
2023/11/30 17:06:13;351159.00;1.17;605.85;0.00;0.00;0.62;;;;;7.30;1.00;;;;;;2277886;60;1539;-89
2023/11/30 17:08:40;1189294.00;3.96;2070.88;44859.00;0.15;78.29;;;;;7.50;1.00;;;;;;2276218;61;1540;-87
2023/11/30 17:11:08;117861016.00;392.87;66319872.00;114177.00;0.38;198.04;;;;;7.60;1.00;;;;;;2276365;61;996;-87
2023/11/30 17:13:35;424512.00;1.42;731.95;17925.00;0.06;31.68;;;;;7.50;1.00;;;;;;2276280;61;1541;-87
2023/11/30 17:16:03;237584.00;0.79;410.60;0.00;0.00;0.62;;;;;7.50;1.00;;;;;;2276109;61;1460;-90
2023/11/30 17:18:30;1604564.00;5.35;2841.46;188367.00;0.63;325.90;;;;;7.70;1.00;;;;;;2276358;61;1024;-89
2023/11/30 17:20:56;608820.00;2.03;1049.45;91559.00;0.31;159.00;;;;;7.70;1.00;;;;;;2276218;61;2001;-87
2023/11/30 17:23:23;208774.00;0.70;361.03;0.00;0.00;0.62;;;;;7.80;1.00;;;;;;2276352;61;910;-87
2023/11/30 17:25:50;767449.00;2.56;1324.41;15123.00;0.05;26.82;;;;;7.80;1.00;;;;;;2276329;61;1396;-88
2023/11/30 17:28:19;805254.00;2.68;1390.29;118956.00;0.40;206.28;;;;;7.60;1.00;;;;;;2276373;61;1400;-88
2023/11/30 17:30:45;1359820.00;4.53;2382.01;49217.00;0.16;85.83;;;;;7.40;1.00;;;;;;2276425;61;1011;-88
2023/11/30 17:33:12;438775.00;1.46;756.48;121175.00;0.40;210.11;;;;;7.40;1.00;;;;;;2276298;61;1532;-89
2023/11/30 17:35:42;240234.00;0.80;415.15;50304.00;0.17;87.71;;;;;7.40;1.00;;;;;;2276442;61;1604;-87
2023/11/30 17:38:10;138180.00;0.46;239.43;0.00;0.00;0.62;;;;;7.20;1.00;;;;;;2276430;61;972;-89
2023/11/30 17:43:12;1984800.00;6.62;3593.16;51489.00;0.17;89.76;;;;;7.50;1.00;;;;;;2023308;59;1792;-88
2023/11/30 17:45:41;117733528.00;392.45;66104696.00;57468.00;0.19;100.10;;;;;7.30;1.00;;;;;;2318288;56;3776;-87
2023/11/30 17:48:08;432606.00;1.44;745.87;48208.00;0.16;84.09;;;;;7.40;1.00;;;;;;2276159;61;998;-87
2023/11/30 17:50:35;680659.00;2.27;1173.71;0.00;0.00;0.62;;;;;7.50;1.00;;;;;;2276179;61;1102;-89
2023/11/30 17:53:03;1274162.00;4.25;2224.90;86311.00;0.29;149.94;;;;;7.30;1.00;;;;;;2276352;61;1025;-88
2023/11/30 17:55:30;226089.00;0.75;390.82;0.00;0.00;0.62;;;;;7.20;1.00;;;;;;2276033;60;1832;-86
2023/11/30 17:57:57;262253.00;0.87;453.02;0.00;0.00;0.62;;;;;7.70;1.00;;;;;;2276173;60;1608;-88
2023/11/30 18:00:24;274175.00;0.91;473.52;0.00;0.00;0.62;;;;;7.90;1.00;;;;;;2276140;61;1994;-88
2023/11/30 18:02:53;1909423.00;6.36;3439.97;169372.00;0.56;293.18;;;;;7.60;1.00;;;;;;2276076;61;1020;-88